createdAt,value
2019-03-05T00:01:57.997Z,3.40
2019-03-05T00:04:24.350Z,3.80
2019-03-05T00:06:50.623Z,3.73
2019-03-05T00:09:18.802Z,4.30
2019-03-05T00:11:45.097Z,3.03
2019-03-05T00:14:11.355Z,3.40
2019-03-05T00:16:37.781Z,3.53
2019-03-05T00:19:04.881Z,3.20
2019-03-05T00:21:31.179Z,4.17
2019-03-05T00:24:17.607Z,4.17
2019-03-05T00:26:43.945Z,4.20
2019-03-05T00:29:14.087Z,3.53
2019-03-05T00:31:43.577Z,3.70
2019-03-05T00:34:31.499Z,3.50
2019-03-05T00:37:01.595Z,3.57
2019-03-05T00:39:37.281Z,2.87
2019-03-05T00:42:40.511Z,3.90
2019-03-05T00:45:10.631Z,2.97
2019-03-05T00:48:11.307Z,3.60
2019-03-05T00:51:06.776Z,3.83
2019-03-05T00:53:39.689Z,3.63
2019-03-05T00:56:15.895Z,3.10
2019-03-05T00:58:46.243Z,3.30
2019-03-05T01:01:25.424Z,3.60
2019-03-05T01:03:55.526Z,2.80
2019-03-05T01:06:26.040Z,3.27
2019-03-05T01:08:54.865Z,4.37
2019-03-05T01:11:21.959Z,3.77
2019-03-05T01:13:48.472Z,3.60
2019-03-05T01:16:16.862Z,3.63
2019-03-05T01:18:43.150Z,3.53
2019-03-05T01:21:09.639Z,3.87
2019-03-05T01:23:36.012Z,3.20
2019-03-05T01:26:02.561Z,2.60
2019-03-05T01:28:28.980Z,2.90
2019-03-05T01:31:13.760Z,2.20
2019-03-05T01:33:58.387Z,2.30
2019-03-05T01:36:26.569Z,2.33
2019-03-05T01:39:03.615Z,2.10
2019-03-05T01:41:30.285Z,2.37
2019-03-05T01:43:56.614Z,2.70
2019-03-05T01:46:22.928Z,2.80
2019-03-05T01:48:49.244Z,2.80
2019-03-05T01:51:15.526Z,2.67
2019-03-05T01:53:41.860Z,2.70
2019-03-05T01:56:08.168Z,3.47
2019-03-05T01:58:34.763Z,2.87
2019-03-05T02:01:01.090Z,3.47
2019-03-05T02:03:27.589Z,3.00
2019-03-05T02:05:54.154Z,3.07
2019-03-05T02:08:20.467Z,3.07
2019-03-05T02:10:46.959Z,3.03
2019-03-05T02:13:13.282Z,2.83
2019-03-05T02:15:39.931Z,3.00
2019-03-05T02:18:06.322Z,2.83
2019-03-05T02:20:32.720Z,3.00
2019-03-05T02:23:08.146Z,2.70
2019-03-05T02:25:53.077Z,2.93
2019-03-05T02:28:37.518Z,3.07
2019-03-05T02:31:07.626Z,2.70
2019-03-05T02:33:40.576Z,2.60
2019-03-05T02:36:40.752Z,3.10
2019-03-05T02:39:36.566Z,2.67
2019-03-05T02:42:26.260Z,2.60
2019-03-05T02:45:18.730Z,2.43
2019-03-05T02:47:51.523Z,2.63
2019-03-05T02:50:27.385Z,2.53
2019-03-05T02:53:03.578Z,2.70
2019-03-05T02:55:51.586Z,2.70
2019-03-05T02:58:17.973Z,2.73
2019-03-05T03:00:46.153Z,3.00
2019-03-05T03:03:17.137Z,2.87
2019-03-05T03:05:45.637Z,2.67
2019-03-05T03:08:12.088Z,2.97
2019-03-05T03:10:38.747Z,2.80
2019-03-05T03:13:05.198Z,3.23
2019-03-05T03:15:51.357Z,2.43
2019-03-05T03:18:17.635Z,3.03
2019-03-05T03:20:44.015Z,2.90
2019-03-05T03:23:10.363Z,3.07
2019-03-05T03:25:36.679Z,2.77
2019-03-05T03:28:02.997Z,2.80
2019-03-05T03:30:29.330Z,3.00
2019-03-05T03:32:55.689Z,2.80
2019-03-05T03:35:22.245Z,3.07
2019-03-05T03:37:48.582Z,3.13
2019-03-05T03:40:16.785Z,2.60
2019-03-05T03:42:43.208Z,3.00
2019-03-05T03:45:12.732Z,2.60
2019-03-05T03:47:39.179Z,2.90
2019-03-05T03:50:05.871Z,2.60
2019-03-05T03:52:32.274Z,2.67
2019-03-05T03:54:58.583Z,2.50
2019-03-05T03:57:25.024Z,2.60
2019-03-05T03:59:51.263Z,2.57
2019-03-05T04:02:17.570Z,2.73
2019-03-05T04:04:43.985Z,2.73
2019-03-05T04:07:10.540Z,2.73
2019-03-05T04:09:36.954Z,2.40
2019-03-05T04:12:03.393Z,2.40
2019-03-05T04:14:29.703Z,2.80
2019-03-05T04:16:55.976Z,2.57
2019-03-05T04:19:24.407Z,2.70
2019-03-05T04:21:50.802Z,2.70
2019-03-05T04:24:17.080Z,2.80
2019-03-05T04:26:43.423Z,2.90
2019-03-05T04:29:10.098Z,2.90
2019-03-05T04:31:36.393Z,3.13
2019-03-05T04:34:02.815Z,3.07
2019-03-05T04:36:29.124Z,2.77
2019-03-05T04:38:55.476Z,2.90
2019-03-05T04:41:22.017Z,3.00
2019-03-05T04:43:48.242Z,2.90
2019-03-05T04:46:31.557Z,3.20
2019-03-05T04:49:16.404Z,2.90
2019-03-05T04:51:53.634Z,3.00
2019-03-05T04:54:20.041Z,3.17
2019-03-05T04:56:46.346Z,3.93
2019-03-05T04:59:12.650Z,3.53
2019-03-05T05:01:38.941Z,3.47
2019-03-05T05:04:05.510Z,3.10
2019-03-05T05:06:32.066Z,3.00
2019-03-05T05:08:58.663Z,3.13
2019-03-05T05:11:24.971Z,3.83
2019-03-05T05:13:51.280Z,3.07
2019-03-05T05:16:17.610Z,3.20
2019-03-05T05:19:03.766Z,3.43
2019-03-05T05:21:49.995Z,3.00
2019-03-05T05:24:16.225Z,3.27
2019-03-05T05:26:42.574Z,2.87
2019-03-05T05:29:08.853Z,2.80
2019-03-05T05:31:35.132Z,2.83
2019-03-05T05:34:01.439Z,3.07
2019-03-05T05:36:27.775Z,2.87
2019-03-05T05:38:54.109Z,3.47
2019-03-05T05:41:20.513Z,3.03
2019-03-05T05:43:46.794Z,2.90
2019-03-05T05:46:13.104Z,2.80
2019-03-05T05:48:39.439Z,2.73
2019-03-05T05:51:05.795Z,2.70
2019-03-05T05:53:32.136Z,3.00
2019-03-05T05:55:58.472Z,2.77
2019-03-05T05:58:24.836Z,2.80
2019-03-05T06:00:53.079Z,3.30
2019-03-05T06:03:19.435Z,2.90
2019-03-05T06:05:45.780Z,3.07
2019-03-05T06:08:12.085Z,2.90
2019-03-05T06:10:38.395Z,2.83
2019-03-05T06:13:04.810Z,3.07
2019-03-05T06:15:31.254Z,3.00
2019-03-05T06:17:57.507Z,3.10
2019-03-05T06:20:23.946Z,2.80
2019-03-05T06:22:50.502Z,3.57
2019-03-05T06:25:16.810Z,3.30
2019-03-05T06:27:43.120Z,3.90
2019-03-05T06:30:18.072Z,3.17
2019-03-05T06:32:44.562Z,3.57
2019-03-05T06:35:11.175Z,3.00
2019-03-05T06:37:37.481Z,3.33
2019-03-05T06:40:25.686Z,3.37
2019-03-05T06:42:52.277Z,3.10
2019-03-05T06:45:19.109Z,3.03
2019-03-05T06:47:45.768Z,3.03
2019-03-05T06:50:14.705Z,3.10
2019-03-05T06:52:41.101Z,2.50
2019-03-05T06:55:12.571Z,3.10
2019-03-05T06:57:38.911Z,2.63
2019-03-05T07:00:32.094Z,3.17
2019-03-05T07:02:58.416Z,2.37
2019-03-05T07:06:01.882Z,2.97
2019-03-05T07:08:28.740Z,2.60
2019-03-05T07:11:07.639Z,2.40
2019-03-05T07:13:34.204Z,2.90
2019-03-05T07:16:15.952Z,2.50
2019-03-05T07:18:45.063Z,2.80
2019-03-05T07:21:34.509Z,3.20
2019-03-05T07:24:16.703Z,2.53
2019-03-05T07:26:43.008Z,2.43
2019-03-05T07:29:09.296Z,2.40
2019-03-05T07:31:35.590Z,2.60
2019-03-05T07:34:02.090Z,2.40
2019-03-05T07:36:28.420Z,2.70
2019-03-05T07:38:54.758Z,2.63
2019-03-05T07:41:21.032Z,2.70
2019-03-05T07:43:47.375Z,2.60
2019-03-05T07:46:13.683Z,3.20
2019-03-05T07:48:40.226Z,2.80
2019-03-05T07:51:06.590Z,2.90
2019-03-05T07:53:33.246Z,2.80
2019-03-05T07:55:59.521Z,2.80
2019-03-05T07:58:25.806Z,3.07
2019-03-05T08:00:52.356Z,3.20
2019-03-05T08:03:18.666Z,3.17
2019-03-05T08:05:47.427Z,3.20
2019-03-05T08:08:50.310Z,3.30
2019-03-05T08:11:16.616Z,3.80
2019-03-05T08:13:46.769Z,4.43
2019-03-05T08:16:14.941Z,4.33
2019-03-05T08:18:41.374Z,4.10
2019-03-05T08:21:07.669Z,4.13
2019-03-05T08:23:34.098Z,3.93
2019-03-05T08:26:00.395Z,4.20
2019-03-05T08:28:26.737Z,4.30
2019-03-05T08:30:53.051Z,3.73
2019-03-05T08:33:19.342Z,4.33
2019-03-05T08:35:45.686Z,4.00
2019-03-05T08:38:11.960Z,4.00
2019-03-05T08:40:38.519Z,4.50
2019-03-05T08:43:04.883Z,4.13
2019-03-05T08:45:31.482Z,3.57
2019-03-05T08:47:57.836Z,3.90
2019-03-05T08:50:24.085Z,3.70
2019-03-05T08:52:50.416Z,3.70
2019-03-05T08:55:16.712Z,3.70
2019-03-05T08:57:43.186Z,4.20
2019-03-05T09:00:18.127Z,3.80
2019-03-05T09:02:48.542Z,3.97
2019-03-05T09:05:15.308Z,3.70
2019-03-05T09:07:42.161Z,3.93
2019-03-05T09:10:11.566Z,4.53
2019-03-05T09:12:37.939Z,4.00
2019-03-05T09:15:10.812Z,3.90
2019-03-05T09:17:37.204Z,4.63
2019-03-05T09:20:07.612Z,4.10
2019-03-05T09:22:34.185Z,4.20
2019-03-05T09:25:00.476Z,4.30
2019-03-05T09:27:27.153Z,4.60
2019-03-05T09:29:53.548Z,4.20
2019-03-05T09:32:19.843Z,4.37
2019-03-05T09:34:46.138Z,5.00
2019-03-05T09:37:12.439Z,4.87
2019-03-05T09:39:38.699Z,4.50
2019-03-05T09:42:05.050Z,5.07
2019-03-05T09:44:31.333Z,4.60
2019-03-05T09:46:57.757Z,4.37
2019-03-05T09:49:24.323Z,5.10
2019-03-05T09:51:50.652Z,5.40
2019-03-05T09:54:16.950Z,4.53
2019-03-05T09:56:43.549Z,4.93
2019-03-05T09:59:09.829Z,5.23
2019-03-05T10:01:36.326Z,5.33
2019-03-05T10:04:03.039Z,5.70
2019-03-05T10:06:29.350Z,5.33
2019-03-05T10:08:55.640Z,6.27
2019-03-05T10:11:22.599Z,6.63
2019-03-05T10:13:48.907Z,6.80
2019-03-05T10:16:15.207Z,6.83
2019-03-05T10:18:41.750Z,6.50
2019-03-05T10:21:08.852Z,5.47
2019-03-05T10:23:35.453Z,6.07
2019-03-05T10:26:02.151Z,6.83
2019-03-05T10:28:28.567Z,6.33
2019-03-05T10:30:54.960Z,6.50
2019-03-05T10:33:21.238Z,5.83
2019-03-05T10:35:47.545Z,6.30
2019-03-05T10:38:14.311Z,6.63
2019-03-05T10:40:51.987Z,6.57
2019-03-05T10:43:18.270Z,6.13
2019-03-05T10:45:46.028Z,6.50
2019-03-05T10:48:14.943Z,5.83
2019-03-05T10:50:41.355Z,6.37
2019-03-05T10:53:07.704Z,5.70
2019-03-05T10:55:34.039Z,5.73
2019-03-05T10:58:00.531Z,6.10
2019-03-05T11:00:33.277Z,5.47
2019-03-05T11:02:59.910Z,5.57
2019-03-05T11:05:28.424Z,5.13
2019-03-05T11:07:54.829Z,5.87
2019-03-05T11:10:21.231Z,5.27
2019-03-05T11:12:47.633Z,5.47
2019-03-05T11:15:17.334Z,5.50
2019-03-05T11:17:43.772Z,6.00
2019-03-05T11:20:10.863Z,5.60
2019-03-05T11:22:37.257Z,5.53
2019-03-05T11:25:07.354Z,4.93
2019-03-05T11:27:33.863Z,5.50
2019-03-05T11:30:00.353Z,5.70
2019-03-05T11:32:26.770Z,5.27
2019-03-05T11:34:53.176Z,6.00
2019-03-05T11:37:19.569Z,4.77
2019-03-05T11:39:45.874Z,5.23
2019-03-05T11:42:12.188Z,5.00
2019-03-05T11:44:38.742Z,4.90
2019-03-05T11:47:05.230Z,4.10
2019-03-05T11:49:31.807Z,4.13
2019-03-05T11:51:58.031Z,4.10
2019-03-05T11:54:24.324Z,3.90
2019-03-05T11:56:50.608Z,4.00
2019-03-05T11:59:17.025Z,3.77
2019-03-05T12:01:43.438Z,4.30
2019-03-05T12:04:09.731Z,3.97
2019-03-05T12:06:36.032Z,4.10
2019-03-05T12:09:04.219Z,3.90
2019-03-05T12:11:30.512Z,3.77
2019-03-05T12:13:57.219Z,4.30
2019-03-05T12:16:23.478Z,3.80
2019-03-05T12:18:49.764Z,4.17
2019-03-05T12:21:16.060Z,3.73
2019-03-05T12:23:46.721Z,4.10
2019-03-05T12:26:10.685Z,3.83
2019-03-05T12:28:36.981Z,3.87
2019-03-05T12:31:05.145Z,3.83
2019-03-05T12:33:31.400Z,3.90
2019-03-05T12:35:57.958Z,4.13
2019-03-05T12:38:24.491Z,3.80
2019-03-05T12:40:50.797Z,4.47
2019-03-05T12:43:17.093Z,3.83
2019-03-05T12:45:43.388Z,3.63
2019-03-05T12:48:09.695Z,3.80
2019-03-05T12:50:36.583Z,4.23
2019-03-05T12:53:03.358Z,3.70
2019-03-05T12:55:29.656Z,3.33
2019-03-05T12:57:55.965Z,3.27
2019-03-05T13:00:33.256Z,3.97
2019-03-05T13:02:59.669Z,3.60
2019-03-05T13:05:25.990Z,3.67
2019-03-05T13:07:56.299Z,3.10
2019-03-05T13:10:34.856Z,3.07
2019-03-05T13:12:59.798Z,3.40
2019-03-05T13:15:37.215Z,3.23
2019-03-05T13:18:03.618Z,3.40
2019-03-05T13:20:30.010Z,3.27
2019-03-05T13:22:56.425Z,3.27
2019-03-05T13:25:24.310Z,3.60
2019-03-05T13:27:52.360Z,3.20
2019-03-05T13:30:25.907Z,3.10
2019-03-05T13:32:54.235Z,3.33
2019-03-05T13:35:20.813Z,3.60
2019-03-05T13:38:07.814Z,3.33
2019-03-05T13:40:38.249Z,3.40
2019-03-05T13:43:04.422Z,3.77
2019-03-05T13:45:30.710Z,3.17
2019-03-05T13:48:19.593Z,3.30
2019-03-05T13:51:11.562Z,3.23
2019-03-05T13:54:01.298Z,4.00
2019-03-05T13:56:52.346Z,3.30
2019-03-05T13:59:33.304Z,3.27
2019-03-05T14:01:59.363Z,3.17
2019-03-05T14:04:34.689Z,3.30
2019-03-05T14:07:19.731Z,3.10
2019-03-05T14:09:45.565Z,3.27
2019-03-05T14:12:11.619Z,3.20
2019-03-05T14:14:37.778Z,3.00
2019-03-05T14:17:09.127Z,3.07
2019-03-05T14:19:35.427Z,3.33
2019-03-05T14:22:01.705Z,3.03
2019-03-05T14:24:27.768Z,3.50
2019-03-05T14:26:53.807Z,2.87
2019-03-05T14:29:19.865Z,3.20
2019-03-05T14:31:46.004Z,2.97
2019-03-05T14:34:12.199Z,3.30
2019-03-05T14:36:38.314Z,3.07
2019-03-05T14:39:10.126Z,3.57
2019-03-05T14:41:36.517Z,3.60
2019-03-05T14:44:02.669Z,4.27
2019-03-05T14:46:28.914Z,3.70
2019-03-05T14:48:55.583Z,4.40
2019-03-05T14:51:21.646Z,4.07
2019-03-05T14:53:47.873Z,3.73
2019-03-05T14:56:14.315Z,3.73
2019-03-05T14:58:40.388Z,3.23
2019-03-05T15:01:06.734Z,3.60
2019-03-05T15:03:32.910Z,3.50
2019-03-05T15:05:59.017Z,3.57
2019-03-05T15:08:25.330Z,3.90
2019-03-05T15:10:51.422Z,3.63
2019-03-05T15:13:20.058Z,3.40
2019-03-05T15:15:45.869Z,3.40
2019-03-05T15:18:12.053Z,3.63
2019-03-05T15:20:38.164Z,3.60
2019-03-05T15:23:04.316Z,3.67
2019-03-05T15:25:30.493Z,3.30
2019-03-05T15:27:56.638Z,3.63
2019-03-05T15:30:24.103Z,3.33
2019-03-05T15:32:50.277Z,3.47
2019-03-05T15:35:16.429Z,3.63
2019-03-05T15:37:42.558Z,3.47
2019-03-05T15:40:11.584Z,4.00
2019-03-05T15:42:37.744Z,4.00
2019-03-05T15:45:07.356Z,3.63
2019-03-05T15:47:33.545Z,4.67
2019-03-05T15:49:59.716Z,4.07
2019-03-05T15:52:26.126Z,3.67
2019-03-05T15:54:52.170Z,3.80
2019-03-05T15:57:25.983Z,3.90
2019-03-05T15:59:46.496Z,4.57
2019-03-05T16:02:12.635Z,4.13
2019-03-05T16:04:39.668Z,3.80
2019-03-05T16:07:06.983Z,3.43
2019-03-05T16:09:34.986Z,3.70
2019-03-05T16:12:05.975Z,3.60
2019-03-05T16:14:32.858Z,4.20
2019-03-05T16:16:58.855Z,4.00
2019-03-05T16:19:24.906Z,4.03
2019-03-05T16:21:50.954Z,3.80
2019-03-05T16:24:17.015Z,3.87
2019-03-05T16:26:43.180Z,4.33
2019-03-05T16:29:09.312Z,4.10
2019-03-05T16:31:40.047Z,3.97
2019-03-05T16:34:09.388Z,3.77
2019-03-05T16:36:43.355Z,4.33
2019-03-05T16:39:18.332Z,4.50
2019-03-05T16:41:58.298Z,4.47
2019-03-05T16:44:42.448Z,4.10
2019-03-05T16:47:28.398Z,3.70
2019-03-05T16:49:59.147Z,4.93
2019-03-05T16:52:27.091Z,4.10
2019-03-05T16:54:57.811Z,4.30
2019-03-05T16:57:31.511Z,4.10
2019-03-05T16:59:59.483Z,4.57
2019-03-05T17:02:33.441Z,4.40
2019-03-05T17:05:19.054Z,4.37
2019-03-05T17:08:01.959Z,3.70
2019-03-05T17:10:44.797Z,3.97
2019-03-05T17:13:11.569Z,4.03
2019-03-05T17:15:37.750Z,4.03
2019-03-05T17:18:04.038Z,4.20
2019-03-05T17:20:30.218Z,4.30
2019-03-05T17:22:56.323Z,4.60
2019-03-05T17:25:22.698Z,4.13
2019-03-05T17:27:48.883Z,4.50
2019-03-05T17:30:16.160Z,4.03
2019-03-05T17:32:42.812Z,4.73
2019-03-05T17:35:09.999Z,4.60
2019-03-05T17:37:36.180Z,4.30
2019-03-05T17:40:03.558Z,4.73
2019-03-05T17:42:29.636Z,4.57
2019-03-05T17:44:55.860Z,4.63
2019-03-05T17:47:22.349Z,4.60
2019-03-05T17:49:48.561Z,4.33
2019-03-05T17:52:14.841Z,4.63
2019-03-05T17:54:41.012Z,5.20
2019-03-05T17:57:08.918Z,4.77
2019-03-05T17:59:35.176Z,4.80
2019-03-05T18:02:01.259Z,4.43
2019-03-05T18:04:27.571Z,4.87
2019-03-05T18:06:53.732Z,4.50
2019-03-05T18:09:19.833Z,4.73
2019-03-05T18:11:46.022Z,4.50
2019-03-05T18:14:12.229Z,4.73
2019-03-05T18:16:38.672Z,4.90
2019-03-05T18:19:04.845Z,4.50
2019-03-05T18:21:30.929Z,4.47
2019-03-05T18:23:57.129Z,4.10
2019-03-05T18:26:24.419Z,4.17
2019-03-05T18:28:50.598Z,4.27
2019-03-05T18:31:16.793Z,3.53
2019-03-05T18:33:42.889Z,4.23
2019-03-05T18:36:08.962Z,4.03
2019-03-05T18:38:35.144Z,4.47
2019-03-05T18:41:01.337Z,4.30
2019-03-05T18:43:27.517Z,4.13
2019-03-05T18:45:53.698Z,3.97
2019-03-05T18:48:19.792Z,3.33
2019-03-05T18:50:45.866Z,3.43
2019-03-05T18:53:12.256Z,3.13
2019-03-05T18:55:38.460Z,3.10
2019-03-05T18:58:04.901Z,3.30
2019-03-05T19:00:32.269Z,3.23
2019-03-05T19:03:01.379Z,2.70
2019-03-05T19:05:27.559Z,3.13
2019-03-05T19:07:53.820Z,2.70
2019-03-05T19:10:22.302Z,2.63
2019-03-05T19:12:48.600Z,2.47
2019-03-05T19:15:16.895Z,2.47
2019-03-05T19:17:43.060Z,3.57
2019-03-05T19:20:15.159Z,2.63
2019-03-05T19:22:41.233Z,2.50
2019-03-05T19:25:11.010Z,3.27
2019-03-05T19:27:37.209Z,2.87
2019-03-05T19:30:07.186Z,2.83
2019-03-05T19:32:33.354Z,2.80
2019-03-05T19:34:59.524Z,3.00
2019-03-05T19:37:25.697Z,2.90
2019-03-05T19:39:52.900Z,2.87
2019-03-05T19:42:19.069Z,2.57
2019-03-05T19:44:45.141Z,3.20
2019-03-05T19:47:11.271Z,2.53
2019-03-05T19:49:37.441Z,2.70
2019-03-05T19:52:03.536Z,3.17
2019-03-05T19:54:29.903Z,3.03
2019-03-05T19:56:56.233Z,3.10
2019-03-05T19:59:22.547Z,3.70
2019-03-05T20:01:48.889Z,3.20
2019-03-05T20:04:17.095Z,3.40
2019-03-05T20:06:44.051Z,3.20
2019-03-05T20:09:13.475Z,3.07
2019-03-05T20:11:39.783Z,2.73
2019-03-05T20:14:06.131Z,3.43
2019-03-05T20:16:32.734Z,3.47
2019-03-05T20:18:59.111Z,3.20
2019-03-05T20:21:25.565Z,2.83
2019-03-05T20:23:51.905Z,2.97
2019-03-05T20:26:18.540Z,3.10
2019-03-05T20:28:44.982Z,3.40
2019-03-05T20:31:11.319Z,3.10
2019-03-05T20:33:37.665Z,3.00
2019-03-05T20:36:03.985Z,3.20
2019-03-05T20:38:30.426Z,3.30
2019-03-05T20:40:56.770Z,3.47
2019-03-05T20:43:23.075Z,3.27
2019-03-05T20:45:53.224Z,3.50
2019-03-05T20:48:19.550Z,3.33
2019-03-05T20:50:45.868Z,3.67
2019-03-05T20:53:12.223Z,3.20
2019-03-05T20:55:38.531Z,2.97
2019-03-05T20:58:04.951Z,2.97
2019-03-05T21:00:36.863Z,3.10
2019-03-05T21:03:05.364Z,2.97
2019-03-05T21:05:34.106Z,2.80
2019-03-05T21:08:00.443Z,2.80
2019-03-05T21:10:27.061Z,3.03
2019-03-05T21:12:53.380Z,3.20
2019-03-05T21:15:19.940Z,3.40
2019-03-05T21:17:49.129Z,4.20
2019-03-05T21:20:15.519Z,3.40
2019-03-05T21:22:42.077Z,3.37
2019-03-05T21:25:12.144Z,3.80
2019-03-05T21:27:38.472Z,3.77
2019-03-05T21:30:08.625Z,3.43
2019-03-05T21:32:35.207Z,3.67
2019-03-05T21:35:01.762Z,3.97
2019-03-05T21:37:28.093Z,3.67
2019-03-05T21:39:56.547Z,3.87
2019-03-05T21:42:22.535Z,4.30
2019-03-05T21:44:48.835Z,3.57
2019-03-05T21:47:15.142Z,3.90
2019-03-05T21:49:41.423Z,4.00
2019-03-05T21:52:07.716Z,3.87
2019-03-05T21:54:34.045Z,4.23
2019-03-05T21:57:00.667Z,4.20
2019-03-05T21:59:26.970Z,4.00
2019-03-05T22:01:53.282Z,3.70
2019-03-05T22:04:19.848Z,3.43
2019-03-05T22:06:46.159Z,3.50
2019-03-05T22:09:12.465Z,3.70
2019-03-05T22:11:38.936Z,3.40
2019-03-05T22:14:05.479Z,3.10
2019-03-05T22:16:31.788Z,3.20
2019-03-05T22:18:58.056Z,3.27
2019-03-05T22:21:24.413Z,3.70
2019-03-05T22:23:51.746Z,3.47
2019-03-05T22:26:18.351Z,3.70
2019-03-05T22:28:44.691Z,3.20
2019-03-05T22:31:11.293Z,3.47
2019-03-05T22:33:37.642Z,3.17
2019-03-05T22:36:03.894Z,3.30
2019-03-05T22:38:30.190Z,3.30
2019-03-05T22:40:56.607Z,3.40
2019-03-05T22:43:23.160Z,3.57
2019-03-05T22:45:49.464Z,3.70
2019-03-05T22:48:15.752Z,3.50
2019-03-05T22:50:42.218Z,3.60
2019-03-05T22:53:08.511Z,3.40
2019-03-05T22:55:34.787Z,3.27
2019-03-05T22:58:01.103Z,3.70
2019-03-05T23:00:47.649Z,3.57
2019-03-05T23:03:17.747Z,3.50
2019-03-05T23:05:44.193Z,3.47
2019-03-05T23:08:10.485Z,3.53
2019-03-05T23:10:36.913Z,3.30
2019-03-05T23:13:03.474Z,3.30
2019-03-05T23:15:29.760Z,3.57
2019-03-05T23:17:56.155Z,3.50
2019-03-05T23:20:22.868Z,3.03
2019-03-05T23:22:49.421Z,4.30
2019-03-05T23:25:16.809Z,3.57
2019-03-05T23:27:43.219Z,4.50
2019-03-05T23:30:12.217Z,3.53
2019-03-05T23:32:38.497Z,3.57
2019-03-05T23:35:08.217Z,3.50
2019-03-05T23:37:34.502Z,4.10
2019-03-05T23:40:00.907Z,3.77
2019-03-05T23:42:27.519Z,3.80
2019-03-05T23:44:53.822Z,3.97
2019-03-05T23:47:20.114Z,3.50
2019-03-05T23:49:46.690Z,3.50
2019-03-05T23:52:12.994Z,4.03
2019-03-05T23:54:39.309Z,4.53
2019-03-05T23:57:05.651Z,4.27
2019-03-05T23:59:32.721Z,3.40
